sensor_id;sensor_type;location;lat;lon;timestamp;P1;durP1;ratioP1;P2;durP2;ratioP2
44228;SDS011;29904;51.058;5.378;2022-12-24T00:00:21;21.45;;;3.47;;
44228;SDS011;29904;51.058;5.378;2022-12-24T00:02:48;22.30;;;3.17;;
44228;SDS011;29904;51.058;5.378;2022-12-24T00:05:14;19.40;;;3.00;;
44228;SDS011;29904;51.058;5.378;2022-12-24T00:07:40;19.13;;;2.93;;
44228;SDS011;29904;51.058;5.378;2022-12-24T00:10:06;22.43;;;3.20;;
44228;SDS011;29904;51.058;5.378;2022-12-24T00:12:32;17.33;;;3.30;;
44228;SDS011;29904;51.058;5.378;2022-12-24T00:15:01;20.17;;;3.30;;
44228;SDS011;29904;51.058;5.378;2022-12-24T00:17:29;21.35;;;3.50;;
44228;SDS011;29904;51.058;5.378;2022-12-24T00:19:54;18.48;;;3.38;;
44228;SDS011;29904;51.058;5.378;2022-12-24T00:22:20;21.23;;;3.13;;
44228;SDS011;29904;51.058;5.378;2022-12-24T00:24:46;27.67;;;3.67;;
44228;SDS011;29904;51.058;5.378;2022-12-24T00:27:12;22.05;;;3.47;;
44228;SDS011;29904;51.058;5.378;2022-12-24T00:29:37;19.83;;;3.20;;
44228;SDS011;29904;51.058;5.378;2022-12-24T00:32:03;20.70;;;3.50;;
44228;SDS011;29904;51.058;5.378;2022-12-24T00:34:33;18.55;;;3.33;;
44228;SDS011;29904;51.058;5.378;2022-12-24T00:37:02;22.13;;;3.33;;
44228;SDS011;29904;51.058;5.378;2022-12-24T00:39:29;19.83;;;3.10;;
44228;SDS011;29904;51.058;5.378;2022-12-24T00:41:55;20.33;;;3.17;;
44228;SDS011;29904;51.058;5.378;2022-12-24T00:44:21;26.92;;;3.55;;
44228;SDS011;29904;51.058;5.378;2022-12-24T00:46:47;23.25;;;3.15;;
44228;SDS011;29904;51.058;5.378;2022-12-24T00:49:13;19.45;;;3.33;;
44228;SDS011;29904;51.058;5.378;2022-12-24T00:51:39;17.25;;;3.08;;
44228;SDS011;29904;51.058;5.378;2022-12-24T00:54:05;23.07;;;3.30;;
44228;SDS011;29904;51.058;5.378;2022-12-24T00:56:31;21.33;;;2.90;;
44228;SDS011;29904;51.058;5.378;2022-12-24T00:58:57;18.30;;;2.92;;
44228;SDS011;29904;51.058;5.378;2022-12-24T01:01:23;17.00;;;2.70;;
44228;SDS011;29904;51.058;5.378;2022-12-24T01:03:51;18.30;;;3.27;;
44228;SDS011;29904;51.058;5.378;2022-12-24T01:06:37;19.10;;;3.20;;
44228;SDS011;29904;51.058;5.378;2022-12-24T01:09:03;16.05;;;2.78;;
44228;SDS011;29904;51.058;5.378;2022-12-24T01:11:29;17.17;;;2.75;;
44228;SDS011;29904;51.058;5.378;2022-12-24T01:13:54;16.85;;;3.20;;
44228;SDS011;29904;51.058;5.378;2022-12-24T01:16:22;15.07;;;2.50;;
44228;SDS011;29904;51.058;5.378;2022-12-24T01:18:48;19.53;;;3.03;;
44228;SDS011;29904;51.058;5.378;2022-12-24T01:21:14;17.77;;;3.27;;
44228;SDS011;29904;51.058;5.378;2022-12-24T01:23:40;13.73;;;2.60;;
44228;SDS011;29904;51.058;5.378;2022-12-24T01:26:06;18.30;;;3.08;;
44228;SDS011;29904;51.058;5.378;2022-12-24T01:28:32;13.75;;;2.97;;
44228;SDS011;29904;51.058;5.378;2022-12-24T01:30:58;16.55;;;3.17;;
44228;SDS011;29904;51.058;5.378;2022-12-24T01:33:26;19.33;;;3.10;;
44228;SDS011;29904;51.058;5.378;2022-12-24T01:35:53;17.00;;;3.17;;
44228;SDS011;29904;51.058;5.378;2022-12-24T01:38:19;17.00;;;3.05;;
44228;SDS011;29904;51.058;5.378;2022-12-24T01:40:44;19.40;;;3.10;;
44228;SDS011;29904;51.058;5.378;2022-12-24T01:43:29;20.10;;;3.58;;
44228;SDS011;29904;51.058;5.378;2022-12-24T01:46:03;17.90;;;2.60;;
44228;SDS011;29904;51.058;5.378;2022-12-24T01:48:54;16.58;;;2.65;;
44228;SDS011;29904;51.058;5.378;2022-12-24T01:51:43;14.50;;;2.50;;
44228;SDS011;29904;51.058;5.378;2022-12-24T01:54:11;16.13;;;2.60;;
44228;SDS011;29904;51.058;5.378;2022-12-24T01:56:39;19.83;;;3.25;;
44228;SDS011;29904;51.058;5.378;2022-12-24T01:59:13;14.18;;;2.40;;
44228;SDS011;29904;51.058;5.378;2022-12-24T02:01:42;20.37;;;3.23;;
44228;SDS011;29904;51.058;5.378;2022-12-24T02:07:10;15.33;;;2.77;;
44228;SDS011;29904;51.058;5.378;2022-12-24T02:09:36;17.87;;;2.77;;
44228;SDS011;29904;51.058;5.378;2022-12-24T02:12:04;15.02;;;2.30;;
44228;SDS011;29904;51.058;5.378;2022-12-24T02:14:30;15.90;;;2.63;;
44228;SDS011;29904;51.058;5.378;2022-12-24T02:22:46;16.08;;;2.25;;
44228;SDS011;29904;51.058;5.378;2022-12-24T02:31:16;17.85;;;2.42;;
44228;SDS011;29904;51.058;5.378;2022-12-24T02:34:14;16.55;;;2.53;;
44228;SDS011;29904;51.058;5.378;2022-12-24T02:37:11;13.23;;;2.50;;
44228;SDS011;29904;51.058;5.378;2022-12-24T02:39:50;11.85;;;2.20;;
44228;SDS011;29904;51.058;5.378;2022-12-24T02:42:20;10.82;;;2.10;;
44228;SDS011;29904;51.058;5.378;2022-12-24T02:44:54;13.02;;;2.00;;
44228;SDS011;29904;51.058;5.378;2022-12-24T02:47:25;12.43;;;2.40;;
44228;SDS011;29904;51.058;5.378;2022-12-24T02:49:52;15.85;;;2.22;;
44228;SDS011;29904;51.058;5.378;2022-12-24T02:52:38;12.82;;;2.03;;
44228;SDS011;29904;51.058;5.378;2022-12-24T03:00:18;10.40;;;1.83;;
44228;SDS011;29904;51.058;5.378;2022-12-24T03:03:34;9.10;;;1.80;;
44228;SDS011;29904;51.058;5.378;2022-12-24T03:08:52;9.65;;;1.77;;
44228;SDS011;29904;51.058;5.378;2022-12-24T03:11:22;10.73;;;1.70;;
44228;SDS011;29904;51.058;5.378;2022-12-24T03:13:48;10.25;;;1.40;;
44228;SDS011;29904;51.058;5.378;2022-12-24T03:16:17;11.30;;;1.67;;
44228;SDS011;29904;51.058;5.378;2022-12-24T03:18:47;12.45;;;2.00;;
44228;SDS011;29904;51.058;5.378;2022-12-24T03:21:15;6.53;;;1.33;;
44228;SDS011;29904;51.058;5.378;2022-12-24T03:23:51;9.90;;;1.48;;
44228;SDS011;29904;51.058;5.378;2022-12-24T03:26:18;10.38;;;1.60;;
44228;SDS011;29904;51.058;5.378;2022-12-24T03:28:45;9.80;;;1.57;;
44228;SDS011;29904;51.058;5.378;2022-12-24T03:31:11;11.35;;;1.88;;
44228;SDS011;29904;51.058;5.378;2022-12-24T03:33:40;10.90;;;2.13;;
44228;SDS011;29904;51.058;5.378;2022-12-24T03:36:07;11.88;;;1.90;;
44228;SDS011;29904;51.058;5.378;2022-12-24T03:38:33;10.73;;;2.08;;
44228;SDS011;29904;51.058;5.378;2022-12-24T03:41:01;9.68;;;1.83;;
44228;SDS011;29904;51.058;5.378;2022-12-24T03:43:27;12.83;;;2.13;;
44228;SDS011;29904;51.058;5.378;2022-12-24T03:45:53;10.95;;;2.03;;
44228;SDS011;29904;51.058;5.378;2022-12-24T03:48:19;12.18;;;1.88;;
44228;SDS011;29904;51.058;5.378;2022-12-24T03:50:45;12.80;;;2.10;;
44228;SDS011;29904;51.058;5.378;2022-12-24T03:53:11;11.45;;;1.92;;
44228;SDS011;29904;51.058;5.378;2022-12-24T03:55:37;15.23;;;2.53;;
44228;SDS011;29904;51.058;5.378;2022-12-24T03:58:04;11.68;;;2.10;;
44228;SDS011;29904;51.058;5.378;2022-12-24T04:00:30;15.43;;;2.03;;
44228;SDS011;29904;51.058;5.378;2022-12-24T04:02:56;11.40;;;2.03;;
44228;SDS011;29904;51.058;5.378;2022-12-24T04:05:21;13.53;;;2.20;;
44228;SDS011;29904;51.058;5.378;2022-12-24T04:07:47;13.57;;;2.67;;
44228;SDS011;29904;51.058;5.378;2022-12-24T04:10:14;14.40;;;2.27;;
44228;SDS011;29904;51.058;5.378;2022-12-24T04:12:41;11.85;;;1.90;;
44228;SDS011;29904;51.058;5.378;2022-12-24T04:15:07;15.10;;;2.30;;
44228;SDS011;29904;51.058;5.378;2022-12-24T04:17:34;14.65;;;2.15;;
44228;SDS011;29904;51.058;5.378;2022-12-24T04:20:00;14.02;;;2.45;;
44228;SDS011;29904;51.058;5.378;2022-12-24T04:22:25;13.13;;;2.50;;
44228;SDS011;29904;51.058;5.378;2022-12-24T04:24:51;14.03;;;2.37;;
44228;SDS011;29904;51.058;5.378;2022-12-24T04:27:17;16.17;;;2.60;;
44228;SDS011;29904;51.058;5.378;2022-12-24T04:29:42;13.90;;;2.40;;
44228;SDS011;29904;51.058;5.378;2022-12-24T04:32:08;10.30;;;2.63;;
44228;SDS011;29904;51.058;5.378;2022-12-24T04:34:34;10.50;;;2.28;;
44228;SDS011;29904;51.058;5.378;2022-12-24T04:37:00;11.48;;;2.03;;
44228;SDS011;29904;51.058;5.378;2022-12-24T04:39:27;13.98;;;2.33;;
44228;SDS011;29904;51.058;5.378;2022-12-24T04:41:52;12.40;;;2.60;;
44228;SDS011;29904;51.058;5.378;2022-12-24T04:44:18;16.30;;;2.40;;
44228;SDS011;29904;51.058;5.378;2022-12-24T04:46:43;12.00;;;2.00;;
44228;SDS011;29904;51.058;5.378;2022-12-24T04:49:09;11.63;;;2.20;;
44228;SDS011;29904;51.058;5.378;2022-12-24T04:51:35;16.63;;;2.80;;
44228;SDS011;29904;51.058;5.378;2022-12-24T04:54:01;17.73;;;2.75;;
44228;SDS011;29904;51.058;5.378;2022-12-24T04:56:29;14.27;;;2.70;;
44228;SDS011;29904;51.058;5.378;2022-12-24T04:58:57;10.88;;;2.10;;
44228;SDS011;29904;51.058;5.378;2022-12-24T05:01:25;10.80;;;2.15;;
44228;SDS011;29904;51.058;5.378;2022-12-24T05:03:53;17.23;;;2.90;;
44228;SDS011;29904;51.058;5.378;2022-12-24T05:06:23;11.82;;;2.50;;
44228;SDS011;29904;51.058;5.378;2022-12-24T05:08:55;16.35;;;2.40;;
44228;SDS011;29904;51.058;5.378;2022-12-24T05:11:21;14.82;;;3.10;;
44228;SDS011;29904;51.058;5.378;2022-12-24T05:13:47;16.70;;;2.55;;
44228;SDS011;29904;51.058;5.378;2022-12-24T05:16:14;17.67;;;2.80;;
44228;SDS011;29904;51.058;5.378;2022-12-24T05:18:41;13.27;;;2.70;;
44228;SDS011;29904;51.058;5.378;2022-12-24T05:21:12;16.05;;;2.78;;
44228;SDS011;29904;51.058;5.378;2022-12-24T05:23:40;14.37;;;2.50;;
44228;SDS011;29904;51.058;5.378;2022-12-24T05:28:59;15.88;;;2.90;;
44228;SDS011;29904;51.058;5.378;2022-12-24T05:31:26;18.07;;;2.93;;
44228;SDS011;29904;51.058;5.378;2022-12-24T05:33:54;15.52;;;2.90;;
44228;SDS011;29904;51.058;5.378;2022-12-24T05:36:21;16.70;;;3.00;;
44228;SDS011;29904;51.058;5.378;2022-12-24T05:38:47;15.88;;;2.90;;
44228;SDS011;29904;51.058;5.378;2022-12-24T05:41:13;14.73;;;2.78;;
44228;SDS011;29904;51.058;5.378;2022-12-24T05:43:41;16.92;;;2.70;;
44228;SDS011;29904;51.058;5.378;2022-12-24T05:46:14;16.58;;;3.53;;
44228;SDS011;29904;51.058;5.378;2022-12-24T05:48:41;16.55;;;3.10;;
44228;SDS011;29904;51.058;5.378;2022-12-24T05:51:07;14.35;;;2.92;;
44228;SDS011;29904;51.058;5.378;2022-12-24T05:53:35;20.02;;;2.75;;
44228;SDS011;29904;51.058;5.378;2022-12-24T05:56:02;17.70;;;3.08;;
44228;SDS011;29904;51.058;5.378;2022-12-24T05:58:32;14.02;;;2.80;;
44228;SDS011;29904;51.058;5.378;2022-12-24T06:00:59;16.02;;;2.78;;
44228;SDS011;29904;51.058;5.378;2022-12-24T06:03:26;17.20;;;2.88;;
44228;SDS011;29904;51.058;5.378;2022-12-24T06:05:59;16.95;;;2.85;;
44228;SDS011;29904;51.058;5.378;2022-12-24T06:08:28;13.95;;;2.80;;
44228;SDS011;29904;51.058;5.378;2022-12-24T06:10:56;20.80;;;3.00;;
44228;SDS011;29904;51.058;5.378;2022-12-24T06:13:22;14.45;;;2.80;;
44228;SDS011;29904;51.058;5.378;2022-12-24T06:15:49;19.25;;;2.90;;
44228;SDS011;29904;51.058;5.378;2022-12-24T06:18:15;20.95;;;3.17;;
44228;SDS011;29904;51.058;5.378;2022-12-24T06:20:41;19.33;;;2.92;;
44228;SDS011;29904;51.058;5.378;2022-12-24T06:23:06;21.53;;;2.83;;
44228;SDS011;29904;51.058;5.378;2022-12-24T06:25:32;14.27;;;2.60;;
44228;SDS011;29904;51.058;5.378;2022-12-24T06:27:58;20.42;;;2.90;;
44228;SDS011;29904;51.058;5.378;2022-12-24T06:30:24;17.10;;;3.00;;
44228;SDS011;29904;51.058;5.378;2022-12-24T06:32:50;21.73;;;3.20;;
44228;SDS011;29904;51.058;5.378;2022-12-24T06:35:15;22.93;;;3.30;;
44228;SDS011;29904;51.058;5.378;2022-12-24T06:37:41;17.38;;;3.20;;
44228;SDS011;29904;51.058;5.378;2022-12-24T06:40:07;15.10;;;3.07;;
44228;SDS011;29904;51.058;5.378;2022-12-24T06:42:33;14.85;;;3.20;;
44228;SDS011;29904;51.058;5.378;2022-12-24T06:45:01;15.93;;;3.30;;
44228;SDS011;29904;51.058;5.378;2022-12-24T06:47:27;21.77;;;3.20;;
44228;SDS011;29904;51.058;5.378;2022-12-24T06:49:52;14.30;;;3.00;;
44228;SDS011;29904;51.058;5.378;2022-12-24T06:52:20;12.95;;;3.00;;
44228;SDS011;29904;51.058;5.378;2022-12-24T06:54:46;19.67;;;3.42;;
44228;SDS011;29904;51.058;5.378;2022-12-24T06:57:12;17.27;;;3.13;;
44228;SDS011;29904;51.058;5.378;2022-12-24T06:59:37;20.65;;;3.22;;
44228;SDS011;29904;51.058;5.378;2022-12-24T07:02:03;18.23;;;3.13;;
44228;SDS011;29904;51.058;5.378;2022-12-24T07:04:29;15.23;;;3.17;;
44228;SDS011;29904;51.058;5.378;2022-12-24T07:06:55;21.02;;;3.40;;
44228;SDS011;29904;51.058;5.378;2022-12-24T07:09:20;20.00;;;3.40;;
44228;SDS011;29904;51.058;5.378;2022-12-24T07:11:46;19.97;;;3.13;;
44228;SDS011;29904;51.058;5.378;2022-12-24T07:14:12;15.83;;;2.93;;
44228;SDS011;29904;51.058;5.378;2022-12-24T07:16:38;20.00;;;3.40;;
44228;SDS011;29904;51.058;5.378;2022-12-24T07:19:03;16.37;;;2.90;;
44228;SDS011;29904;51.058;5.378;2022-12-24T07:21:29;20.07;;;3.57;;
44228;SDS011;29904;51.058;5.378;2022-12-24T07:23:55;23.13;;;3.57;;
44228;SDS011;29904;51.058;5.378;2022-12-24T07:26:20;21.73;;;3.28;;
44228;SDS011;29904;51.058;5.378;2022-12-24T07:28:46;18.23;;;2.90;;
44228;SDS011;29904;51.058;5.378;2022-12-24T07:31:12;18.35;;;3.10;;
44228;SDS011;29904;51.058;5.378;2022-12-24T07:33:38;17.48;;;2.85;;
44228;SDS011;29904;51.058;5.378;2022-12-24T07:36:04;17.88;;;3.10;;
44228;SDS011;29904;51.058;5.378;2022-12-24T07:38:32;18.30;;;3.63;;
44228;SDS011;29904;51.058;5.378;2022-12-24T07:40:58;20.98;;;3.45;;
44228;SDS011;29904;51.058;5.378;2022-12-24T07:43:26;18.65;;;3.50;;
44228;SDS011;29904;51.058;5.378;2022-12-24T07:45:55;19.95;;;3.25;;
44228;SDS011;29904;51.058;5.378;2022-12-24T07:48:22;18.10;;;3.77;;
44228;SDS011;29904;51.058;5.378;2022-12-24T07:50:49;19.00;;;3.63;;
44228;SDS011;29904;51.058;5.378;2022-12-24T07:53:15;19.00;;;3.10;;
44228;SDS011;29904;51.058;5.378;2022-12-24T07:55:41;17.92;;;3.50;;
44228;SDS011;29904;51.058;5.378;2022-12-24T07:58:08;16.75;;;3.60;;
44228;SDS011;29904;51.058;5.378;2022-12-24T08:00:34;16.13;;;2.78;;
44228;SDS011;29904;51.058;5.378;2022-12-24T08:02:59;21.50;;;3.80;;
44228;SDS011;29904;51.058;5.378;2022-12-24T08:05:25;20.93;;;3.40;;
44228;SDS011;29904;51.058;5.378;2022-12-24T08:07:52;17.23;;;3.35;;
44228;SDS011;29904;51.058;5.378;2022-12-24T08:10:18;19.20;;;3.50;;
44228;SDS011;29904;51.058;5.378;2022-12-24T08:12:44;22.77;;;3.70;;
44228;SDS011;29904;51.058;5.378;2022-12-24T08:15:12;20.85;;;3.28;;
44228;SDS011;29904;51.058;5.378;2022-12-24T08:17:38;22.48;;;3.60;;
44228;SDS011;29904;51.058;5.378;2022-12-24T08:20:04;20.00;;;3.80;;
44228;SDS011;29904;51.058;5.378;2022-12-24T08:22:30;26.73;;;3.60;;
44228;SDS011;29904;51.058;5.378;2022-12-24T08:24:56;21.63;;;3.83;;
44228;SDS011;29904;51.058;5.378;2022-12-24T08:27:21;26.17;;;4.00;;
44228;SDS011;29904;51.058;5.378;2022-12-24T08:29:47;26.70;;;4.20;;
44228;SDS011;29904;51.058;5.378;2022-12-24T08:32:13;24.25;;;4.18;;
44228;SDS011;29904;51.058;5.378;2022-12-24T08:34:39;27.00;;;4.25;;
44228;SDS011;29904;51.058;5.378;2022-12-24T08:37:05;21.27;;;3.72;;
44228;SDS011;29904;51.058;5.378;2022-12-24T08:39:30;23.38;;;3.17;;
44228;SDS011;29904;51.058;5.378;2022-12-24T08:41:56;19.50;;;3.30;;
44228;SDS011;29904;51.058;5.378;2022-12-24T08:44:22;20.43;;;3.53;;
44228;SDS011;29904;51.058;5.378;2022-12-24T08:46:48;16.20;;;3.00;;
44228;SDS011;29904;51.058;5.378;2022-12-24T08:49:13;22.00;;;3.30;;
44228;SDS011;29904;51.058;5.378;2022-12-24T08:51:40;24.13;;;3.90;;
44228;SDS011;29904;51.058;5.378;2022-12-24T08:54:05;18.87;;;3.27;;
44228;SDS011;29904;51.058;5.378;2022-12-24T08:56:31;20.47;;;3.43;;
44228;SDS011;29904;51.058;5.378;2022-12-24T08:58:58;18.25;;;3.28;;
44228;SDS011;29904;51.058;5.378;2022-12-24T09:01:24;21.90;;;3.58;;
44228;SDS011;29904;51.058;5.378;2022-12-24T09:03:50;24.02;;;3.83;;
44228;SDS011;29904;51.058;5.378;2022-12-24T09:06:16;23.90;;;3.58;;
44228;SDS011;29904;51.058;5.378;2022-12-24T09:08:42;22.52;;;3.38;;
44228;SDS011;29904;51.058;5.378;2022-12-24T09:11:09;22.05;;;3.42;;
44228;SDS011;29904;51.058;5.378;2022-12-24T09:13:37;17.45;;;3.40;;
44228;SDS011;29904;51.058;5.378;2022-12-24T09:16:04;19.40;;;3.47;;
44228;SDS011;29904;51.058;5.378;2022-12-24T09:18:32;23.43;;;3.83;;
44228;SDS011;29904;51.058;5.378;2022-12-24T09:21:02;25.00;;;4.05;;
44228;SDS011;29904;51.058;5.378;2022-12-24T09:23:30;19.52;;;3.67;;
44228;SDS011;29904;51.058;5.378;2022-12-24T09:26:05;19.42;;;3.28;;
44228;SDS011;29904;51.058;5.378;2022-12-24T09:28:43;18.77;;;3.13;;
44228;SDS011;29904;51.058;5.378;2022-12-24T09:31:10;24.67;;;3.70;;
44228;SDS011;29904;51.058;5.378;2022-12-24T09:33:37;24.43;;;4.13;;
44228;SDS011;29904;51.058;5.378;2022-12-24T09:36:04;25.70;;;4.40;;
44228;SDS011;29904;51.058;5.378;2022-12-24T09:38:31;24.08;;;4.60;;
44228;SDS011;29904;51.058;5.378;2022-12-24T09:40:57;21.20;;;4.00;;
44228;SDS011;29904;51.058;5.378;2022-12-24T09:43:28;22.50;;;4.05;;
44228;SDS011;29904;51.058;5.378;2022-12-24T09:48:41;15.73;;;3.33;;
44228;SDS011;29904;51.058;5.378;2022-12-24T09:51:11;21.33;;;3.88;;
44228;SDS011;29904;51.058;5.378;2022-12-24T09:54:01;20.05;;;3.60;;
44228;SDS011;29904;51.058;5.378;2022-12-24T09:56:33;19.08;;;3.40;;
44228;SDS011;29904;51.058;5.378;2022-12-24T09:59:05;16.13;;;2.90;;
44228;SDS011;29904;51.058;5.378;2022-12-24T10:01:54;19.43;;;3.37;;
44228;SDS011;29904;51.058;5.378;2022-12-24T10:04:20;15.68;;;3.30;;
44228;SDS011;29904;51.058;5.378;2022-12-24T10:09:46;21.75;;;3.28;;
44228;SDS011;29904;51.058;5.378;2022-12-24T10:18:18;22.90;;;3.15;;
44228;SDS011;29904;51.058;5.378;2022-12-24T10:26:24;20.75;;;3.67;;
44228;SDS011;29904;51.058;5.378;2022-12-24T10:29:19;22.20;;;3.87;;
44228;SDS011;29904;51.058;5.378;2022-12-24T10:34:35;23.65;;;3.65;;
44228;SDS011;29904;51.058;5.378;2022-12-24T10:37:05;17.27;;;3.60;;
44228;SDS011;29904;51.058;5.378;2022-12-24T10:39:35;32.63;;;4.93;;
44228;SDS011;29904;51.058;5.378;2022-12-24T10:42:01;18.57;;;4.30;;
44228;SDS011;29904;51.058;5.378;2022-12-24T10:44:30;16.55;;;3.58;;
44228;SDS011;29904;51.058;5.378;2022-12-24T10:46:57;15.20;;;3.20;;
44228;SDS011;29904;51.058;5.378;2022-12-24T10:52:28;16.65;;;3.05;;
44228;SDS011;29904;51.058;5.378;2022-12-24T10:55:07;19.02;;;3.75;;
44228;SDS011;29904;51.058;5.378;2022-12-24T10:57:33;19.52;;;3.42;;
44228;SDS011;29904;51.058;5.378;2022-12-24T10:59:59;16.65;;;3.38;;
44228;SDS011;29904;51.058;5.378;2022-12-24T11:02:27;22.92;;;3.75;;
44228;SDS011;29904;51.058;5.378;2022-12-24T11:05:02;20.13;;;3.85;;
44228;SDS011;29904;51.058;5.378;2022-12-24T11:07:32;16.08;;;3.20;;
44228;SDS011;29904;51.058;5.378;2022-12-24T11:12:35;15.60;;;3.10;;
44228;SDS011;29904;51.058;5.378;2022-12-24T11:15:15;19.75;;;3.70;;
44228;SDS011;29904;51.058;5.378;2022-12-24T11:17:53;22.58;;;3.70;;
44228;SDS011;29904;51.058;5.378;2022-12-24T11:20:25;14.65;;;3.33;;
44228;SDS011;29904;51.058;5.378;2022-12-24T11:22:52;20.65;;;3.90;;
44228;SDS011;29904;51.058;5.378;2022-12-24T11:25:19;18.10;;;3.60;;
44228;SDS011;29904;51.058;5.378;2022-12-24T11:27:47;18.50;;;3.42;;
44228;SDS011;29904;51.058;5.378;2022-12-24T11:32:42;17.40;;;3.83;;
44228;SDS011;29904;51.058;5.378;2022-12-24T11:35:16;22.95;;;4.15;;
44228;SDS011;29904;51.058;5.378;2022-12-24T11:37:47;17.38;;;3.67;;
44228;SDS011;29904;51.058;5.378;2022-12-24T11:40:22;16.70;;;3.50;;
44228;SDS011;29904;51.058;5.378;2022-12-24T11:42:50;18.05;;;3.42;;
44228;SDS011;29904;51.058;5.378;2022-12-24T11:45:23;17.73;;;3.85;;
44228;SDS011;29904;51.058;5.378;2022-12-24T11:47:51;19.15;;;4.00;;
44228;SDS011;29904;51.058;5.378;2022-12-24T11:52:58;19.38;;;3.70;;
44228;SDS011;29904;51.058;5.378;2022-12-24T11:55:44;18.27;;;3.50;;
44228;SDS011;29904;51.058;5.378;2022-12-24T12:01:25;17.83;;;3.15;;
44228;SDS011;29904;51.058;5.378;2022-12-24T12:06:58;22.08;;;3.63;;
44228;SDS011;29904;51.058;5.378;2022-12-24T12:09:36;18.05;;;4.00;;
44228;SDS011;29904;51.058;5.378;2022-12-24T12:14:35;16.70;;;3.35;;
44228;SDS011;29904;51.058;5.378;2022-12-24T12:20:03;19.67;;;3.15;;
44228;SDS011;29904;51.058;5.378;2022-12-24T12:22:33;19.47;;;3.80;;
44228;SDS011;29904;51.058;5.378;2022-12-24T12:25:06;20.75;;;3.35;;
44228;SDS011;29904;51.058;5.378;2022-12-24T12:27:46;16.70;;;3.35;;
44228;SDS011;29904;51.058;5.378;2022-12-24T12:30:17;15.88;;;3.40;;
44228;SDS011;29904;51.058;5.378;2022-12-24T12:35:28;18.02;;;3.83;;
44228;SDS011;29904;51.058;5.378;2022-12-24T12:40:52;25.80;;;4.60;;
44228;SDS011;29904;51.058;5.378;2022-12-24T12:43:31;23.08;;;4.43;;
44228;SDS011;29904;51.058;5.378;2022-12-24T12:46:22;18.33;;;4.50;;
44228;SDS011;29904;51.058;5.378;2022-12-24T12:51:43;22.88;;;4.00;;
44228;SDS011;29904;51.058;5.378;2022-12-24T12:54:34;19.90;;;4.05;;
44228;SDS011;29904;51.058;5.378;2022-12-24T12:57:20;18.38;;;3.72;;
44228;SDS011;29904;51.058;5.378;2022-12-24T12:59:56;17.92;;;3.28;;
44228;SDS011;29904;51.058;5.378;2022-12-24T13:05:39;16.15;;;3.35;;
44228;SDS011;29904;51.058;5.378;2022-12-24T13:11:28;14.20;;;2.78;;
44228;SDS011;29904;51.058;5.378;2022-12-24T13:16:43;18.40;;;3.58;;
44228;SDS011;29904;51.058;5.378;2022-12-24T13:19:28;16.20;;;3.33;;
44228;SDS011;29904;51.058;5.378;2022-12-24T13:21:56;23.23;;;5.90;;
44228;SDS011;29904;51.058;5.378;2022-12-24T13:24:25;18.35;;;4.53;;
44228;SDS011;29904;51.058;5.378;2022-12-24T13:27:01;19.27;;;3.45;;
44228;SDS011;29904;51.058;5.378;2022-12-24T13:29:55;18.58;;;3.75;;
44228;SDS011;29904;51.058;5.378;2022-12-24T13:34:56;20.08;;;3.35;;
44228;SDS011;29904;51.058;5.378;2022-12-24T13:48:39;18.52;;;3.38;;
44228;SDS011;29904;51.058;5.378;2022-12-24T13:50:42;15.43;;;2.85;;
44228;SDS011;29904;51.058;5.378;2022-12-24T13:53:20;14.57;;;3.20;;
44228;SDS011;29904;51.058;5.378;2022-12-24T13:55:56;17.33;;;3.30;;
44228;SDS011;29904;51.058;5.378;2022-12-24T13:58:48;15.50;;;3.35;;
44228;SDS011;29904;51.058;5.378;2022-12-24T14:01:19;13.30;;;2.80;;
44228;SDS011;29904;51.058;5.378;2022-12-24T14:03:49;16.35;;;3.40;;
44228;SDS011;29904;51.058;5.378;2022-12-24T14:09:11;18.13;;;2.97;;
44228;SDS011;29904;51.058;5.378;2022-12-24T14:14:27;17.73;;;3.35;;
44228;SDS011;29904;51.058;5.378;2022-12-24T14:16:57;16.83;;;3.47;;
44228;SDS011;29904;51.058;5.378;2022-12-24T14:22:27;16.95;;;3.42;;
44228;SDS011;29904;51.058;5.378;2022-12-24T14:25:18;15.57;;;3.75;;
44228;SDS011;29904;51.058;5.378;2022-12-24T14:27:54;20.85;;;4.07;;
44228;SDS011;29904;51.058;5.378;2022-12-24T14:30:24;16.23;;;3.72;;
44228;SDS011;29904;51.058;5.378;2022-12-24T14:32:53;17.97;;;4.00;;
44228;SDS011;29904;51.058;5.378;2022-12-24T14:35:25;15.63;;;4.10;;
44228;SDS011;29904;51.058;5.378;2022-12-24T14:38:00;17.45;;;4.20;;
44228;SDS011;29904;51.058;5.378;2022-12-24T14:40:30;16.47;;;3.53;;
44228;SDS011;29904;51.058;5.378;2022-12-24T14:48:25;14.88;;;3.33;;
44228;SDS011;29904;51.058;5.378;2022-12-24T15:05:09;12.87;;;3.37;;
44228;SDS011;29904;51.058;5.378;2022-12-24T15:07:55;14.32;;;4.03;;
44228;SDS011;29904;51.058;5.378;2022-12-24T15:10:33;17.88;;;3.90;;
44228;SDS011;29904;51.058;5.378;2022-12-24T15:13:04;14.80;;;4.35;;
44228;SDS011;29904;51.058;5.378;2022-12-24T15:15:50;16.90;;;4.20;;
44228;SDS011;29904;51.058;5.378;2022-12-24T15:18:19;17.88;;;4.63;;
44228;SDS011;29904;51.058;5.378;2022-12-24T15:20:50;13.48;;;3.88;;
44228;SDS011;29904;51.058;5.378;2022-12-24T15:23:18;14.03;;;4.50;;
44228;SDS011;29904;51.058;5.378;2022-12-24T15:25:49;14.83;;;4.33;;
44228;SDS011;29904;51.058;5.378;2022-12-24T15:28:16;15.40;;;4.73;;
44228;SDS011;29904;51.058;5.378;2022-12-24T15:30:43;12.90;;;3.92;;
44228;SDS011;29904;51.058;5.378;2022-12-24T15:33:10;14.23;;;4.43;;
44228;SDS011;29904;51.058;5.378;2022-12-24T15:35:52;15.38;;;5.30;;
44228;SDS011;29904;51.058;5.378;2022-12-24T15:38:39;23.73;;;9.77;;
44228;SDS011;29904;51.058;5.378;2022-12-24T15:41:24;20.55;;;7.68;;
44228;SDS011;29904;51.058;5.378;2022-12-24T15:43:53;15.70;;;5.10;;
44228;SDS011;29904;51.058;5.378;2022-12-24T15:46:25;11.60;;;4.47;;
44228;SDS011;29904;51.058;5.378;2022-12-24T15:48:54;17.30;;;4.97;;
44228;SDS011;29904;51.058;5.378;2022-12-24T15:51:31;15.77;;;4.00;;
44228;SDS011;29904;51.058;5.378;2022-12-24T15:54:06;15.88;;;4.30;;
44228;SDS011;29904;51.058;5.378;2022-12-24T15:56:42;15.13;;;4.38;;
44228;SDS011;29904;51.058;5.378;2022-12-24T15:59:19;16.95;;;3.88;;
44228;SDS011;29904;51.058;5.378;2022-12-24T16:01:46;13.95;;;4.00;;
44228;SDS011;29904;51.058;5.378;2022-12-24T16:04:13;15.55;;;4.00;;
44228;SDS011;29904;51.058;5.378;2022-12-24T16:06:50;14.93;;;4.07;;
44228;SDS011;29904;51.058;5.378;2022-12-24T16:09:30;14.38;;;3.70;;
44228;SDS011;29904;51.058;5.378;2022-12-24T16:11:59;14.40;;;3.50;;
44228;SDS011;29904;51.058;5.378;2022-12-24T16:14:25;12.85;;;3.33;;
44228;SDS011;29904;51.058;5.378;2022-12-24T16:16:51;15.13;;;3.83;;
44228;SDS011;29904;51.058;5.378;2022-12-24T16:19:20;16.63;;;3.67;;
44228;SDS011;29904;51.058;5.378;2022-12-24T16:21:54;13.65;;;3.47;;
44228;SDS011;29904;51.058;5.378;2022-12-24T16:24:45;15.45;;;3.80;;
44228;SDS011;29904;51.058;5.378;2022-12-24T16:27:12;16.48;;;4.05;;
44228;SDS011;29904;51.058;5.378;2022-12-24T16:29:38;19.58;;;4.43;;
44228;SDS011;29904;51.058;5.378;2022-12-24T16:32:04;12.23;;;3.33;;
44228;SDS011;29904;51.058;5.378;2022-12-24T16:34:30;14.90;;;3.55;;
44228;SDS011;29904;51.058;5.378;2022-12-24T16:36:57;18.02;;;4.85;;
44228;SDS011;29904;51.058;5.378;2022-12-24T16:39:24;20.40;;;5.35;;
44228;SDS011;29904;51.058;5.378;2022-12-24T16:41:59;20.37;;;5.80;;
44228;SDS011;29904;51.058;5.378;2022-12-24T16:44:45;19.02;;;5.10;;
44228;SDS011;29904;51.058;5.378;2022-12-24T16:47:13;17.47;;;5.67;;
44228;SDS011;29904;51.058;5.378;2022-12-24T16:49:45;15.35;;;4.88;;
44228;SDS011;29904;51.058;5.378;2022-12-24T16:52:15;17.83;;;5.82;;
44228;SDS011;29904;51.058;5.378;2022-12-24T16:54:42;20.90;;;6.80;;
44228;SDS011;29904;51.058;5.378;2022-12-24T16:57:08;15.65;;;6.78;;